This is the latest recevied weather packets stored in our database for station/object IW9CSJ-13. If no packets are shown the sender has not sent any weather packets the latest 10 day(s).
| Time | Temp. | Humidity | Pressure | Rain* | Wind** | Luminosity | Snow |
|---|---|---|---|---|---|---|---|
| 1777518917 | 16.11° C | 58% | 1013.8 hPa | 0 mm | - | - | - |
| 1777515321 | 16.11° C | 58% | 1013.8 hPa | 0 mm | - | - | - |
| 1777515016 | 16.11° C | 58% | 1013.8 hPa | 0 mm | - | - | - |
| 1777512342 | 16.11° C | 63% | 1013.8 hPa | 0 mm | - | - | - |
| 1777511727 | 15.56° C | 63% | 1013.9 hPa | 0 mm | - | - | - |
| 1777511419 | 15.56° C | 63% | 1013.9 hPa | 0 mm | - | - | - |
| 1777510906 | 15.56° C | 63% | 1013.9 hPa | 0 mm | - | - | - |
| 1777510217 | 15.56° C | 63% | 1013.9 hPa | 0 mm | - | - | - |
| 1777509623 | 15.56° C | 63% | 1013.9 hPa | 0 mm | - | - | - |
| 1777508723 | 15.56° C | 62% | 1014.2 hPa | 0 mm | - | - | - |
| 1777507302 | 15.56° C | 61% | 1014.3 hPa | 0 mm | - | - | - |
| 1777505117 | 16.11° C | 60% | 1014.6 hPa | 0 mm | - | - | - |
| 1777503622 | 16.11° C | 61% | 1014.7 hPa | 0 mm | - | - | - |
| 1777502440 | 16.11° C | 60% | 1014.8 hPa | 0 mm | - | - | - |
| 1777502124 | 16.11° C | 59% | 1014.9 hPa | 0 mm | - | - | - |
| 1777500646 | 16.67° C | 58% | 1014.8 hPa | 0 mm | - | - | - |
| 1777500316 | 16.67° C | 58% | 1014.9 hPa | 0 mm | - | - | - |
| 1777499728 | 16.67° C | 57% | 1015 hPa | 0 mm | - | - | - |
| 1777499125 | 16.67° C | 55% | 1015 hPa | 0 mm | - | - | - |
| 1777494317 | 16.67° C | 58% | 1015.1 hPa | 0 mm | - | - | - |
| 1777493426 | 16.67° C | 62% | 1015 hPa | 0 mm | - | - | - |
| 1777491620 | 16.67° C | 63% | 1015 hPa | 0 mm | - | - | - |
| 1777490157 | 16.67° C | 68% | 1014.8 hPa | 0 mm | - | - | - |
| 1777489820 | 16.67° C | 68% | 1014.7 hPa | 0 mm | - | - | - |
| 1777488018 | 16.11° C | 73% | 1014.5 hPa | 0 mm | - | - | - |
* Rain latest hour (hover to see other rain measurements)
** Current wind speed in m/s (hover to see current wind gust speed)